Medford, WI (54451)

5:47 PM CST on February 06, 2016 (GMT -0600)
Taylor County | | Change Station
CLOSE
Current Station
Airport
Location: Medford,
Elevation: 1470 ft
Nearby Weather Stations

Elev 1470 ft 45.10 °N, 90.30 °W | Updated 12 minutes ago

Overcast
Overcast
30 °F
Feels Like 21 °F
N
10
Wind Variable Wind from South

Today
High -- | Low -- °F
--% Chance of Precip.
Yesterday
High -- | Low -- °F
Precip. -- in
Pressure 29.93 in
Visibility 10.0 miles
Clouds Mostly Cloudy 10000 ft
Windchill 21 °F
Dew Point 22 °F
Humidity 73%
Rainfall 0.00 in
Snow Depth Not available.
7:16 AM 5:15 PM
Waning Crescent, 3% visible
METAR KMDZ 062335Z AUTO 18009KT 10SM BKN100 M01/M05 A2993 RMK AO2 T10121055
Pressure 29.93 in
Visibility 10.0 miles
Clouds Mostly Cloudy 10000 ft
Windchill 21 °F
Dew Point 22 °F
Humidity 73%
Rainfall 0.00 in
Snow Depth Not available.
7:16 AM 5:15 PM
Waning Crescent, 3% visible
METAR KMDZ 062335Z AUTO 18009KT 10SM BKN100 M01/M05 A2993 RMK AO2 T10121055

10-Day Weather Forecast

Almanac

Astronomy

Feb. 06, 2016 Rise Set
Actual Time
Civil Twilight
Nautical Twilight
Astronomical Twilight
Moon
Length of Visible Light
Length of Day
Tomorrow will be .
, % of the Moon is Illuminated

Today's Extremes

State Highs State Lows

Community

WunderPhotos

Upload Photos

1,891,098 photos uploaded!

WunderBlog® & News

Nearby

Air Quality

  Air Quality AQ Index Pollutant
Not available.

Snow Depth

Station Depth Elevation

Earthquake Activity

City Distance Mag. Time & Date
Minimum magnitude displayed is 2.5.

Coastal Water Temperatures

Place Temperature

Stations

Nearby Weather Stations

Station Location Temp. Windchill Dew Point Humidity Wind Precip. Elev Updated Type
                   

Watches & Warnings

There are currently no watches in effect.